Time;durP1;ratioP1;P1;durP2;ratioP2;P2;SDS_P1;SDS_P2;PMS_P1;PMS_P2;Temp;Humidity;BMP_temperature;BMP_pressure;BME280_temperature;BME280_humidity;BME280_pressure;Samples;Min_cycle;Max_cycle;Signal;HPM_P1;HPM_P2
2023/02/03 00:00:37;;;;;;;63.30;39.17;;;8.50;99.90;;;;;;5086386;28;20069;-67
2023/02/03 00:03:03;;;;;;;65.88;38.08;;;8.50;99.90;;;;;;5089181;28;20090;-66
2023/02/03 00:05:30;;;;;;;68.03;38.95;;;8.50;99.90;;;;;;5085986;28;20032;-66
2023/02/03 00:07:56;;;;;;;69.97;39.88;;;8.50;99.90;;;;;;5078488;28;20024;-66
2023/02/03 00:10:22;;;;;;;62.88;38.63;;;8.50;99.90;;;;;;5093135;28;20488;-66
2023/02/03 00:12:49;;;;;;;65.88;38.33;;;8.50;99.90;;;;;;5075509;28;20470;-66
2023/02/03 00:15:14;;;;;;;62.75;37.22;;;8.50;99.90;;;;;;5081600;28;20438;-67
2023/02/03 00:17:40;;;;;;;64.53;36.60;;;8.50;99.90;;;;;;5088334;28;20036;-66
2023/02/03 00:20:06;;;;;;;62.47;36.40;;;8.50;99.90;;;;;;5085554;28;20119;-65
2023/02/03 00:22:32;;;;;;;62.88;37.50;;;8.50;99.90;;;;;;5082018;28;20056;-65
2023/02/03 00:24:57;;;;;;;66.97;36.45;;;8.50;99.90;;;;;;5085206;28;20063;-65
2023/02/03 00:27:23;;;;;;;67.85;36.65;;;8.50;99.90;;;;;;5086832;28;20079;-65
2023/02/03 00:29:49;;;;;;;58.55;35.35;;;8.60;99.90;;;;;;5086809;28;20089;-66
2023/02/03 00:32:14;;;;;;;58.30;35.67;;;8.50;99.90;;;;;;5093245;28;20382;-66
2023/02/03 00:34:40;;;;;;;66.00;36.58;;;8.60;99.90;;;;;;5098597;28;20367;-65
2023/02/03 00:37:05;;;;;;;54.50;34.92;;;8.60;99.90;;;;;;5097122;28;20028;-65
2023/02/03 00:39:31;;;;;;;58.55;34.25;;;8.50;99.90;;;;;;5097503;28;20466;-65
2023/02/03 00:41:56;;;;;;;62.35;34.63;;;8.50;99.90;;;;;;5098093;28;20044;-65
2023/02/03 00:44:22;;;;;;;52.33;33.22;;;8.50;99.90;;;;;;5099416;28;20051;-64
2023/02/03 00:46:48;;;;;;;50.45;33.20;;;8.50;99.90;;;;;;5101036;28;20410;-64
2023/02/03 00:49:13;;;;;;;52.13;31.48;;;8.60;99.90;;;;;;5097293;28;20016;-65
2023/02/03 00:51:39;;;;;;;51.70;31.65;;;8.60;99.90;;;;;;5095862;28;20077;-64
2023/02/03 00:54:04;;;;;;;53.33;31.50;;;8.60;99.90;;;;;;5096686;28;20491;-64
2023/02/03 00:56:30;;;;;;;47.25;30.50;;;8.60;99.90;;;;;;5099838;28;20107;-64
2023/02/03 00:58:55;;;;;;;43.90;28.50;;;8.60;99.90;;;;;;5098894;28;20119;-64
2023/02/03 01:01:21;;;;;;;45.55;28.77;;;8.60;99.90;;;;;;5093683;28;20028;-63
2023/02/03 01:03:46;;;;;;;47.65;28.27;;;8.60;99.90;;;;;;5094966;28;20040;-64
2023/02/03 01:06:18;;;;;;;46.28;27.70;;;8.60;99.90;;;;;;5095613;28;20031;-64
2023/02/03 01:08:44;;;;;;;45.00;28.65;;;8.60;99.90;;;;;;5095430;28;20398;-64
2023/02/03 01:11:12;;;;;;;45.20;28.38;;;8.70;99.90;;;;;;5094304;28;20035;-64
2023/02/03 01:13:38;;;;;;;45.45;28.90;;;8.70;99.90;;;;;;5097246;28;20028;-64
2023/02/03 01:16:07;;;;;;;42.65;28.63;;;8.70;99.90;;;;;;5097236;28;20073;-63
2023/02/03 01:18:33;;;;;;;48.33;29.40;;;8.70;99.90;;;;;;5112645;28;20029;-64
2023/02/03 01:21:05;;;;;;;52.38;29.95;;;8.60;99.90;;;;;;5092879;28;20370;-63
2023/02/03 01:23:30;;;;;;;50.88;29.95;;;8.70;99.90;;;;;;5106974;28;20025;-64
2023/02/03 01:25:56;;;;;;;45.28;28.38;;;8.70;99.90;;;;;;5108123;28;20032;-64
2023/02/03 01:28:21;;;;;;;41.97;27.70;;;8.60;99.90;;;;;;5094561;28;20029;-64
2023/02/03 01:30:47;;;;;;;47.40;28.42;;;8.70;99.90;;;;;;5107195;28;20176;-64
2023/02/03 01:33:12;;;;;;;44.97;28.42;;;8.70;99.90;;;;;;5098608;28;20481;-64
2023/02/03 01:35:37;;;;;;;43.22;28.70;;;8.70;99.90;;;;;;5098919;28;20096;-66
2023/02/03 01:38:03;;;;;;;49.67;29.50;;;8.70;99.90;;;;;;5084062;28;20032;-64
2023/02/03 01:40:29;;;;;;;51.95;28.83;;;8.70;99.90;;;;;;5111774;28;20023;-64
2023/02/03 01:42:54;;;;;;;43.42;27.88;;;8.70;99.90;;;;;;5105617;28;20101;-64
2023/02/03 01:45:20;;;;;;;42.83;28.50;;;8.70;99.90;;;;;;5107961;28;20116;-64
2023/02/03 01:47:49;;;;;;;48.60;29.33;;;8.70;99.90;;;;;;5099129;28;20474;-64
2023/02/03 01:50:23;;;;;;;43.83;28.05;;;8.70;99.90;;;;;;5082185;28;20030;-64
2023/02/03 01:52:55;;;;;;;46.67;28.80;;;8.70;99.90;;;;;;5086640;28;20016;-64
2023/02/03 01:55:26;;;;;;;46.13;27.20;;;8.70;99.90;;;;;;5100469;28;20086;-64
2023/02/03 01:58:02;;;;;;;50.00;26.30;;;8.70;99.90;;;;;;5080017;28;20035;-64
2023/02/03 02:00:28;;;;;;;41.33;26.20;;;8.70;99.90;;;;;;5099547;28;20389;-65
2023/02/03 02:02:54;;;;;;;45.35;26.65;;;8.70;99.90;;;;;;5095484;28;20028;-65
2023/02/03 02:05:31;;;;;;;47.45;26.13;;;8.70;99.90;;;;;;5095559;28;20062;-65
2023/02/03 02:07:59;;;;;;;37.25;24.75;;;8.70;99.90;;;;;;5111147;28;20055;-65
2023/02/03 02:10:25;;;;;;;46.83;25.30;;;8.70;99.90;;;;;;5103998;28;20023;-64
2023/02/03 02:12:54;;;;;;;46.03;24.67;;;8.70;99.90;;;;;;5096112;27;20016;-65
2023/02/03 02:15:26;;;;;;;50.15;25.58;;;8.80;99.90;;;;;;5088943;28;20021;-65
2023/02/03 02:21:05;;;;;;;44.65;25.77;;;8.80;99.90;;;;;;5069299;28;20453;-64
2023/02/03 02:23:58;;;;;;;39.33;24.67;;;8.80;99.90;;;;;;5062807;28;20502;-64
2023/02/03 02:27:02;;;;;;;43.72;24.25;;;8.80;99.90;;;;;;5071307;28;20024;-65
2023/02/03 02:32:46;;;;;;;44.35;24.17;;;8.80;99.90;;;;;;5105297;27;20137;-65
2023/02/03 02:38:30;;;;;;;36.47;22.75;;;8.70;99.90;;;;;;5114867;27;20903;-64
2023/02/03 02:41:21;;;;;;;41.25;23.33;;;8.80;99.90;;;;;;5120077;27;20510;-64
2023/02/03 02:43:57;;;;;;;34.70;23.30;;;8.80;99.90;;;;;;5091885;28;20032;-64
2023/02/03 02:46:33;;;;;;;43.35;23.83;;;8.80;99.90;;;;;;5094408;28;20440;-64
2023/02/03 02:49:05;;;;;;;38.03;22.88;;;8.80;99.90;;;;;;5095482;28;20119;-64
2023/02/03 02:51:32;;;;;;;39.50;23.40;;;8.80;99.90;;;;;;5103310;28;20057;-64
2023/02/03 02:54:02;;;;;;;37.92;22.45;;;8.70;99.90;;;;;;5111468;28;20508;-64
2023/02/03 02:56:30;;;;;;;38.03;23.20;;;8.70;99.90;;;;;;5111463;27;20433;-64
2023/02/03 02:58:58;;;;;;;34.80;22.20;;;8.70;99.90;;;;;;5111360;28;20024;-64
2023/02/03 03:01:24;;;;;;;34.35;22.17;;;8.70;99.90;;;;;;5105086;28;20055;-65
2023/02/03 03:03:51;;;;;;;33.58;20.75;;;8.70;99.90;;;;;;5094832;28;20066;-66
2023/02/03 03:06:29;;;;;;;35.25;21.27;;;8.70;99.90;;;;;;5100333;28;20020;-64
2023/02/03 03:09:01;;;;;;;40.00;19.63;;;8.70;99.90;;;;;;5108312;28;20038;-63
2023/02/03 03:11:32;;;;;;;39.88;22.88;;;8.70;99.90;;;;;;5097268;28;20501;-63
2023/02/03 03:13:58;;;;;;;39.05;21.65;;;8.70;99.90;;;;;;5105975;28;20035;-64
2023/02/03 03:16:26;;;;;;;33.00;21.02;;;8.70;99.90;;;;;;5097677;28;20028;-63
2023/02/03 03:18:57;;;;;;;34.58;21.88;;;8.70;99.90;;;;;;5097535;28;20074;-64
2023/02/03 03:21:27;;;;;;;40.40;22.33;;;8.70;99.90;;;;;;5103736;28;20016;-64
2023/02/03 03:23:57;;;;;;;35.30;21.45;;;8.60;99.90;;;;;;5107678;28;20020;-66
2023/02/03 03:26:29;;;;;;;43.22;21.88;;;8.70;99.90;;;;;;5121695;28;20040;-64
2023/02/03 03:29:10;;;;;;;34.22;22.27;;;8.70;99.90;;;;;;5104904;28;20474;-64
2023/02/03 03:31:37;;;;;;;36.20;21.55;;;8.70;99.90;;;;;;5100949;28;20100;-64
2023/02/03 03:34:02;;;;;;;39.10;22.45;;;8.70;99.90;;;;;;5104401;28;20030;-64
2023/02/03 03:36:33;;;;;;;44.25;23.85;;;8.70;99.90;;;;;;5102340;28;20493;-64
2023/02/03 03:39:22;;;;;;;37.05;22.90;;;8.70;99.90;;;;;;5104636;28;20450;-64
2023/02/03 03:42:03;;;;;;;37.47;21.60;;;8.70;99.90;;;;;;5108248;28;20492;-65
2023/02/03 03:44:34;;;;;;;38.95;23.25;;;8.60;99.90;;;;;;5104114;28;20026;-64
2023/02/03 03:47:11;;;;;;;45.88;23.30;;;8.70;99.90;;;;;;5105779;28;20028;-64
2023/02/03 03:49:42;;;;;;;33.17;21.52;;;8.60;99.90;;;;;;5091988;28;20051;-64
2023/02/03 03:52:10;;;;;;;38.47;21.88;;;8.70;99.90;;;;;;5090572;28;20107;-65
2023/02/03 03:54:37;;;;;;;41.42;21.30;;;8.70;99.90;;;;;;5113587;28;20032;-63
2023/02/03 03:57:14;;;;;;;32.08;20.52;;;8.70;99.90;;;;;;5110419;28;20444;-64
2023/02/03 03:59:43;;;;;;;38.20;20.83;;;8.70;99.90;;;;;;5085227;28;20433;-64
2023/02/03 04:02:10;;;;;;;30.95;18.98;;;8.70;99.90;;;;;;5074411;28;20028;-65
2023/02/03 04:04:38;;;;;;;31.83;21.05;;;8.70;99.90;;;;;;5092747;28;20065;-63
2023/02/03 04:07:04;;;;;;;30.23;19.75;;;8.70;99.90;;;;;;5094577;28;20055;-64
2023/02/03 04:09:29;;;;;;;35.63;20.05;;;8.70;99.90;;;;;;5094381;28;20063;-64
2023/02/03 04:12:02;;;;;;;28.60;19.00;;;8.70;99.90;;;;;;5085431;28;20025;-64
2023/02/03 04:14:29;;;;;;;31.10;19.42;;;8.70;99.90;;;;;;5076222;28;20081;-64
2023/02/03 04:16:56;;;;;;;29.02;18.40;;;8.70;99.90;;;;;;5081394;28;20477;-64
2023/02/03 04:19:22;;;;;;;28.63;17.08;;;8.70;99.90;;;;;;5083033;28;20074;-64
2023/02/03 04:21:47;;;;;;;31.85;16.60;;;8.80;99.90;;;;;;5084716;28;20039;-64
2023/02/03 04:24:13;;;;;;;28.00;16.45;;;8.70;99.90;;;;;;5089615;28;20020;-64
2023/02/03 04:26:38;;;;;;;26.75;15.95;;;8.70;99.90;;;;;;5083513;28;20032;-63
2023/02/03 04:29:04;;;;;;;29.00;15.68;;;8.80;99.90;;;;;;5076705;28;20648;-63
2023/02/03 04:31:30;;;;;;;25.05;14.65;;;8.80;99.90;;;;;;5094512;28;20488;-63
2023/02/03 04:33:55;;;;;;;25.58;15.23;;;8.90;99.90;;;;;;5076847;28;20051;-63
2023/02/03 04:36:21;;;;;;;24.15;13.30;;;8.80;99.90;;;;;;5079694;28;20404;-66
2023/02/03 04:38:48;;;;;;;25.90;13.80;;;8.80;99.90;;;;;;5083284;28;20020;-64
2023/02/03 04:41:13;;;;;;;24.30;13.70;;;8.90;99.90;;;;;;5087006;28;20500;-64
2023/02/03 04:43:39;;;;;;;23.38;13.23;;;8.90;99.90;;;;;;5077605;28;20024;-65
2023/02/03 04:46:05;;;;;;;24.33;13.48;;;8.90;99.90;;;;;;5087091;28;20141;-64
2023/02/03 04:48:30;;;;;;;26.63;14.10;;;8.80;99.90;;;;;;5093480;28;20038;-64
2023/02/03 04:51:01;;;;;;;22.50;12.57;;;8.80;99.90;;;;;;5093199;28;20535;-64
2023/02/03 04:53:27;;;;;;;20.35;13.10;;;8.80;99.90;;;;;;5090199;28;20485;-64
2023/02/03 04:55:52;;;;;;;24.58;12.82;;;8.80;99.90;;;;;;5087153;28;20110;-64
2023/02/03 04:58:18;;;;;;;20.60;11.95;;;8.80;99.90;;;;;;5092083;28;20027;-64
2023/02/03 05:00:43;;;;;;;31.95;12.70;;;8.90;99.90;;;;;;5092357;28;20032;-64
2023/02/03 05:03:09;;;;;;;26.30;12.65;;;8.90;99.90;;;;;;5086001;28;20047;-64
2023/02/03 05:05:34;;;;;;;21.67;12.52;;;8.90;99.90;;;;;;5092144;28;20055;-64
2023/02/03 05:08:00;;;;;;;22.10;12.65;;;8.90;99.90;;;;;;5104413;28;20046;-64
2023/02/03 05:10:25;;;;;;;18.90;12.45;;;8.80;99.90;;;;;;5112154;28;20508;-64
2023/02/03 05:12:51;;;;;;;23.40;12.52;;;8.80;99.90;;;;;;5096646;28;20035;-64
2023/02/03 05:15:16;;;;;;;19.85;11.93;;;8.80;99.90;;;;;;5082594;28;20035;-64
2023/02/03 05:17:42;;;;;;;21.00;13.00;;;8.90;99.90;;;;;;5101597;28;20102;-64
2023/02/03 05:20:08;;;;;;;22.88;12.57;;;8.80;99.90;;;;;;5106883;28;20035;-64
2023/02/03 05:22:34;;;;;;;18.65;12.68;;;8.90;99.90;;;;;;5104883;28;20084;-64
2023/02/03 05:25:00;;;;;;;18.90;11.05;;;8.90;99.90;;;;;;5091332;28;20024;-65
2023/02/03 05:27:26;;;;;;;20.00;12.38;;;8.80;99.90;;;;;;5093156;28;20054;-64
2023/02/03 05:29:52;;;;;;;22.50;11.93;;;8.90;99.90;;;;;;5101289;28;20028;-64
2023/02/03 05:32:17;;;;;;;21.88;12.07;;;8.80;99.90;;;;;;5101541;28;20050;-64
2023/02/03 05:34:43;;;;;;;23.10;11.30;;;8.80;99.90;;;;;;5087271;28;20032;-64
2023/02/03 05:37:08;;;;;;;21.83;11.30;;;8.90;99.90;;;;;;5112186;28;20052;-64
2023/02/03 05:39:34;;;;;;;16.77;10.85;;;8.90;99.90;;;;;;5086386;28;20389;-64
2023/02/03 05:41:59;;;;;;;18.00;10.88;;;8.90;99.90;;;;;;5085397;28;20456;-64
2023/02/03 05:44:26;;;;;;;19.33;11.00;;;8.80;99.90;;;;;;5091097;28;20029;-64
2023/02/03 05:46:53;;;;;;;20.95;11.20;;;8.80;99.90;;;;;;5088436;28;20028;-64
2023/02/03 05:49:20;;;;;;;17.05;10.93;;;8.80;99.90;;;;;;5089400;28;20055;-66
2023/02/03 05:51:46;;;;;;;18.27;9.82;;;8.80;99.90;;;;;;5095455;28;20058;-64
2023/02/03 05:54:11;;;;;;;19.05;10.95;;;8.80;99.90;;;;;;5089658;28;20036;-65
2023/02/03 05:56:37;;;;;;;17.10;10.15;;;8.80;99.90;;;;;;5092832;28;20083;-64
2023/02/03 05:59:04;;;;;;;17.23;9.80;;;8.80;99.90;;;;;;5080066;28;20070;-64
2023/02/03 06:01:29;;;;;;;20.15;9.27;;;8.80;99.90;;;;;;5092518;28;20031;-66
2023/02/03 06:03:55;;;;;;;22.60;10.02;;;8.90;99.90;;;;;;5098086;28;20038;-65
2023/02/03 06:06:20;;;;;;;17.23;10.40;;;8.90;99.90;;;;;;5078400;28;20043;-65
2023/02/03 06:08:46;;;;;;;21.75;9.93;;;8.80;99.90;;;;;;5091845;28;20426;-65
2023/02/03 06:11:12;;;;;;;17.00;9.55;;;8.80;99.90;;;;;;5087926;28;20020;-65
2023/02/03 06:13:37;;;;;;;18.80;9.13;;;8.80;99.90;;;;;;5080128;28;20039;-66
2023/02/03 06:16:03;;;;;;;20.42;9.50;;;8.80;99.90;;;;;;5084879;28;20440;-64
2023/02/03 06:18:29;;;;;;;15.25;8.80;;;8.80;99.90;;;;;;5102799;28;20043;-65
2023/02/03 06:20:55;;;;;;;16.08;9.57;;;8.80;99.90;;;;;;5087471;28;20088;-65
2023/02/03 06:23:20;;;;;;;16.60;9.77;;;8.80;99.90;;;;;;5079202;28;20016;-65
2023/02/03 06:25:48;;;;;;;18.80;9.45;;;8.70;99.90;;;;;;5077257;28;20078;-63
2023/02/03 06:28:15;;;;;;;23.00;10.48;;;8.70;99.90;;;;;;5079799;28;20414;-64
2023/02/03 06:30:41;;;;;;;19.88;10.65;;;8.70;99.90;;;;;;5091984;28;20027;-65
2023/02/03 06:33:06;;;;;;;18.52;10.23;;;8.70;99.90;;;;;;5088816;28;20032;-64
2023/02/03 06:35:32;;;;;;;20.30;11.43;;;8.60;99.90;;;;;;5081113;28;20036;-64
2023/02/03 06:37:57;;;;;;;24.38;11.98;;;8.50;99.90;;;;;;5087238;28;20047;-64
2023/02/03 06:40:23;;;;;;;20.63;10.80;;;8.50;99.90;;;;;;5076650;28;20033;-65
2023/02/03 06:42:49;;;;;;;20.42;10.60;;;8.50;99.90;;;;;;5073916;28;20032;-66
2023/02/03 06:45:16;;;;;;;19.30;11.77;;;8.40;99.90;;;;;;5084478;28;20020;-64
2023/02/03 06:47:42;;;;;;;31.05;12.15;;;8.40;99.90;;;;;;5087214;28;20390;-66
2023/02/03 06:50:11;;;;;;;21.73;11.40;;;8.40;99.90;;;;;;5088000;28;20047;-65
2023/02/03 06:52:37;;;;;;;22.77;10.73;;;8.50;99.90;;;;;;5088484;28;20036;-65
2023/02/03 06:55:03;;;;;;;22.75;10.32;;;8.50;99.90;;;;;;5076822;28;20031;-65
2023/02/03 06:57:29;;;;;;;24.10;10.27;;;8.60;99.90;;;;;;5089218;28;20050;-65
2023/02/03 06:59:54;;;;;;;14.95;10.20;;;8.70;99.90;;;;;;5089609;28;20032;-63
2023/02/03 07:02:20;;;;;;;21.00;10.13;;;8.70;99.90;;;;;;5084171;28;20039;-64
2023/02/03 07:04:46;;;;;;;15.73;8.63;;;8.70;99.90;;;;;;5083680;28;20030;-64
2023/02/03 07:07:11;;;;;;;16.55;9.52;;;8.70;99.90;;;;;;5084793;28;20073;-65
2023/02/03 07:09:38;;;;;;;21.50;10.20;;;8.70;99.90;;;;;;5081616;28;20029;-65
2023/02/03 07:12:04;;;;;;;18.63;10.70;;;8.70;99.90;;;;;;5087147;28;20058;-64
2023/02/03 07:14:30;;;;;;;21.08;9.80;;;8.60;99.90;;;;;;5079614;28;20070;-64
2023/02/03 07:16:56;;;;;;;22.45;9.82;;;8.70;99.90;;;;;;5085067;28;20039;-64
2023/02/03 07:19:21;;;;;;;19.67;9.57;;;8.70;99.90;;;;;;5086770;28;20059;-65
2023/02/03 07:21:47;;;;;;;19.08;10.38;;;8.70;99.90;;;;;;5090046;28;20469;-64
2023/02/03 07:24:12;;;;;;;22.23;9.88;;;8.70;99.90;;;;;;5092922;28;20031;-64
2023/02/03 07:26:38;;;;;;;20.70;9.75;;;8.70;99.90;;;;;;5087356;28;20031;-64
2023/02/03 07:29:04;;;;;;;17.17;9.32;;;8.70;99.90;;;;;;5090790;28;20068;-64
2023/02/03 07:31:30;;;;;;;20.58;9.23;;;8.80;99.90;;;;;;5085170;28;20020;-64
2023/02/03 07:33:55;;;;;;;22.08;9.23;;;8.80;99.90;;;;;;5083240;28;20036;-65
2023/02/03 07:36:21;;;;;;;15.90;8.90;;;8.80;99.90;;;;;;5085917;28;20062;-67
2023/02/03 07:38:47;;;;;;;18.55;9.30;;;8.90;99.90;;;;;;5076790;28;20036;-64
2023/02/03 07:41:12;;;;;;;17.48;9.05;;;8.90;99.90;;;;;;5089387;28;20020;-65
2023/02/03 07:43:38;;;;;;;18.98;8.15;;;8.90;99.90;;;;;;5085994;28;20024;-65
2023/02/03 07:46:03;;;;;;;17.55;9.32;;;8.90;99.90;;;;;;5079439;28;20029;-65
2023/02/03 07:48:29;;;;;;;15.82;8.30;;;8.80;99.90;;;;;;5090345;28;20024;-65
2023/02/03 07:50:54;;;;;;;19.70;8.65;;;8.80;99.90;;;;;;5092604;28;20028;-65
2023/02/03 07:53:20;;;;;;;17.08;8.73;;;8.90;99.90;;;;;;5090398;28;20077;-65
2023/02/03 07:55:45;;;;;;;12.10;8.38;;;8.90;99.90;;;;;;5088283;28;20132;-64
2023/02/03 07:58:11;;;;;;;13.93;8.77;;;8.90;99.90;;;;;;5088170;28;20025;-65
2023/02/03 08:00:37;;;;;;;13.40;8.70;;;8.90;99.90;;;;;;5090359;28;20097;-66
2023/02/03 08:03:03;;;;;;;19.83;8.35;;;8.90;99.90;;;;;;5081517;28;20355;-66
2023/02/03 08:05:29;;;;;;;19.15;7.90;;;8.90;99.90;;;;;;5087377;28;20486;-66
2023/02/03 08:07:55;;;;;;;19.52;8.05;;;8.90;99.90;;;;;;5094541;28;20035;-66
2023/02/03 08:10:20;;;;;;;17.98;8.82;;;9.00;99.90;;;;;;5087860;28;20048;-66
2023/02/03 08:12:46;;;;;;;17.83;8.57;;;9.00;99.90;;;;;;5084571;28;20099;-67
2023/02/03 08:15:13;;;;;;;17.80;7.82;;;9.00;99.90;;;;;;5089495;28;20028;-66
2023/02/03 08:17:40;;;;;;;12.50;7.45;;;9.00;99.90;;;;;;5080619;28;20025;-66
2023/02/03 08:20:07;;;;;;;15.43;8.05;;;9.00;99.90;;;;;;5091806;28;20047;-66
2023/02/03 08:22:32;;;;;;;15.20;7.30;;;9.00;99.90;;;;;;5092396;28;20028;-67
2023/02/03 08:24:58;;;;;;;13.63;8.68;;;9.00;99.90;;;;;;5085961;28;20367;-67
2023/02/03 08:27:24;;;;;;;14.90;8.43;;;9.00;99.90;;;;;;5084198;28;20040;-66
2023/02/03 08:29:49;;;;;;;21.65;9.50;;;8.90;99.90;;;;;;5088483;28;20118;-66
2023/02/03 08:32:20;;;;;;;16.80;8.88;;;8.90;99.90;;;;;;5089037;28;20024;-67
2023/02/03 08:34:46;;;;;;;20.70;9.35;;;8.90;99.90;;;;;;5076616;28;20040;-67
2023/02/03 08:37:13;;;;;;;19.73;9.48;;;8.90;99.90;;;;;;5077402;28;20486;-66
2023/02/03 08:39:39;;;;;;;15.05;9.05;;;9.00;99.90;;;;;;5090647;28;20084;-66
2023/02/03 08:42:05;;;;;;;23.50;9.60;;;8.90;99.90;;;;;;5088898;28;20107;-68
2023/02/03 08:44:31;;;;;;;23.08;9.52;;;8.90;99.90;;;;;;5089837;28;20024;-67
2023/02/03 08:46:58;;;;;;;17.92;9.50;;;8.90;99.90;;;;;;5090533;28;20034;-67
2023/02/03 08:49:26;;;;;;;15.75;9.18;;;9.00;99.90;;;;;;5081756;28;20047;-68
2023/02/03 08:51:52;;;;;;;16.60;8.95;;;9.10;99.90;;;;;;5062284;28;20064;-68
2023/02/03 08:54:18;;;;;;;21.10;9.65;;;9.10;99.90;;;;;;5066367;28;20024;-67
2023/02/03 08:56:44;;;;;;;16.35;9.52;;;9.10;99.90;;;;;;5068786;28;20041;-67
2023/02/03 08:59:11;;;;;;;17.92;9.43;;;9.10;99.90;;;;;;5064346;28;20024;-67
2023/02/03 09:01:39;;;;;;;18.50;9.73;;;9.10;99.90;;;;;;5067730;28;20062;-67
2023/02/03 09:04:07;;;;;;;18.90;9.63;;;9.20;99.90;;;;;;5068652;28;20524;-67
2023/02/03 09:06:33;;;;;;;21.45;10.27;;;9.20;99.90;;;;;;5068770;28;20042;-65
2023/02/03 09:08:59;;;;;;;18.20;8.68;;;9.20;99.90;;;;;;5060269;28;20032;-64
2023/02/03 09:11:24;;;;;;;17.08;9.23;;;9.20;99.90;;;;;;5058378;28;20028;-64
2023/02/03 09:13:50;;;;;;;17.80;8.95;;;9.20;99.90;;;;;;5064038;28;20127;-65
2023/02/03 09:16:18;;;;;;;21.55;9.35;;;9.30;99.90;;;;;;5066056;28;20115;-64
2023/02/03 09:18:45;;;;;;;16.75;9.05;;;9.20;99.90;;;;;;5049882;28;20039;-63
2023/02/03 09:21:11;;;;;;;20.13;9.40;;;9.20;99.90;;;;;;5064035;28;20478;-65
2023/02/03 09:23:37;;;;;;;20.33;9.50;;;9.20;99.90;;;;;;5058033;28;20021;-64
2023/02/03 09:26:05;;;;;;;21.42;10.18;;;9.30;99.90;;;;;;5060099;28;20368;-66
2023/02/03 09:28:31;;;;;;;20.63;9.85;;;9.30;99.90;;;;;;5066476;28;20027;-65
2023/02/03 09:31:06;;;;;;;19.85;9.45;;;9.30;99.90;;;;;;5059053;28;20096;-66
2023/02/03 09:33:33;;;;;;;18.80;9.48;;;9.30;99.90;;;;;;5065049;28;20502;-65
2023/02/03 09:35:58;;;;;;;20.95;8.98;;;9.30;99.90;;;;;;5069964;28;20093;-65
2023/02/03 09:38:25;;;;;;;20.25;9.93;;;9.30;99.90;;;;;;5068671;28;20289;-65
2023/02/03 09:40:55;;;;;;;15.10;8.70;;;9.30;99.90;;;;;;5070548;28;20037;-64
2023/02/03 09:43:44;;;;;;;18.70;9.48;;;9.30;99.90;;;;;;5062187;28;20498;-65
2023/02/03 09:46:16;;;;;;;22.75;9.10;;;9.30;99.90;;;;;;5067063;28;20486;-65
2023/02/03 09:48:48;;;;;;;16.60;8.95;;;9.30;99.90;;;;;;5068762;28;20089;-66
2023/02/03 09:51:36;;;;;;;18.83;8.45;;;9.30;99.90;;;;;;5068422;28;20379;-65
2023/02/03 09:54:15;;;;;;;17.70;8.40;;;9.30;99.90;;;;;;5066152;28;20082;-65
2023/02/03 09:56:48;;;;;;;23.42;8.13;;;9.40;99.90;;;;;;5068630;28;20024;-65
2023/02/03 09:59:14;;;;;;;18.58;8.38;;;9.40;99.90;;;;;;5064287;28;20021;-65
2023/02/03 10:01:58;;;;;;;23.23;8.02;;;9.40;99.90;;;;;;5060909;28;20027;-67
2023/02/03 10:05:03;;;;;;;17.60;7.85;;;9.40;99.90;;;;;;5056529;28;20110;-66
2023/02/03 10:07:55;;;;;;;12.98;7.65;;;9.40;99.90;;;;;;5059351;28;20025;-66
2023/02/03 10:10:36;;;;;;;19.42;8.65;;;9.40;99.90;;;;;;5063033;28;20025;-65
2023/02/03 10:13:34;;;;;;;22.88;8.75;;;9.40;99.90;;;;;;5064827;28;20067;-65
2023/02/03 10:16:28;;;;;;;15.75;8.48;;;9.40;99.90;;;;;;5063453;28;20478;-66
2023/02/03 10:18:57;;;;;;;19.15;8.25;;;9.40;99.90;;;;;;5061879;28;20103;-65
2023/02/03 10:21:36;;;;;;;15.38;7.88;;;9.50;99.90;;;;;;5059704;28;20021;-65
2023/02/03 10:24:06;;;;;;;19.25;8.13;;;9.50;99.90;;;;;;5060404;28;20094;-65
2023/02/03 10:26:31;;;;;;;22.13;8.70;;;9.50;99.90;;;;;;5070222;28;20470;-65
2023/02/03 10:29:06;;;;;;;18.38;8.38;;;9.50;99.90;;;;;;5063095;28;20077;-65
2023/02/03 10:31:34;;;;;;;15.00;7.22;;;9.50;99.90;;;;;;5059776;28;20073;-64
2023/02/03 10:34:18;;;;;;;19.98;8.23;;;9.50;99.90;;;;;;5067501;28;20494;-63
2023/02/03 10:36:55;;;;;;;19.30;8.70;;;9.60;99.90;;;;;;5068825;28;20395;-64
2023/02/03 10:39:46;;;;;;;20.80;7.72;;;9.50;99.90;;;;;;5044631;28;20040;-64
2023/02/03 10:42:12;;;;;;;18.00;7.10;;;9.60;99.90;;;;;;5059422;28;20020;-64
2023/02/03 10:44:41;;;;;;;15.48;6.93;;;9.60;99.90;;;;;;5067663;28;20056;-65
2023/02/03 10:47:19;;;;;;;19.98;7.30;;;9.60;99.90;;;;;;5063487;28;20063;-63
2023/02/03 10:49:45;;;;;;;18.80;7.05;;;9.60;99.90;;;;;;5068278;28;20111;-64
2023/02/03 10:52:25;;;;;;;21.55;7.57;;;9.70;99.90;;;;;;5063467;28;20032;-65
2023/02/03 10:54:51;;;;;;;11.77;5.97;;;9.70;99.90;;;;;;5060964;28;20036;-64
2023/02/03 10:57:17;;;;;;;19.60;7.35;;;9.70;99.90;;;;;;5062943;28;20070;-64
2023/02/03 10:59:45;;;;;;;16.67;6.95;;;9.60;99.90;;;;;;5068876;28;20471;-64
2023/02/03 11:02:29;;;;;;;14.80;6.45;;;9.70;99.90;;;;;;5071007;28;20482;-64
2023/02/03 11:05:18;;;;;;;24.60;7.25;;;9.70;99.90;;;;;;5067001;28;20025;-67
2023/02/03 11:07:45;;;;;;;17.63;6.68;;;9.70;99.90;;;;;;5064726;28;20028;-65
2023/02/03 11:10:39;;;;;;;19.42;7.07;;;9.70;99.90;;;;;;5068136;28;20071;-63
2023/02/03 11:13:18;;;;;;;25.48;7.25;;;9.60;99.90;;;;;;5068991;28;20043;-65
2023/02/03 11:16:06;;;;;;;18.13;7.00;;;9.60;99.90;;;;;;5061956;28;20061;-64
2023/02/03 11:18:45;;;;;;;17.30;7.72;;;9.60;99.90;;;;;;5069897;28;20036;-65
2023/02/03 11:21:30;;;;;;;19.95;7.80;;;9.60;99.90;;;;;;5068544;28;20025;-64
2023/02/03 11:24:17;;;;;;;15.95;6.80;;;9.60;99.90;;;;;;5067609;28;20115;-66
2023/02/03 11:26:47;;;;;;;16.80;7.03;;;9.60;99.90;;;;;;5068143;28;20375;-64
2023/02/03 11:29:18;;;;;;;19.67;7.45;;;9.60;99.90;;;;;;5069403;28;20442;-65
2023/02/03 11:31:48;;;;;;;16.52;8.15;;;9.60;99.90;;;;;;5069023;28;20406;-65
2023/02/03 11:34:16;;;;;;;21.85;8.70;;;9.60;99.90;;;;;;5064140;28;20025;-65
2023/02/03 11:36:42;;;;;;;14.10;8.07;;;9.50;99.90;;;;;;5061435;28;20087;-64
2023/02/03 11:39:16;;;;;;;21.05;8.43;;;9.50;99.90;;;;;;5059154;28;20025;-65
2023/02/03 11:41:42;;;;;;;22.60;8.38;;;9.50;99.90;;;;;;5073224;28;20077;-64
2023/02/03 11:44:15;;;;;;;22.17;8.93;;;9.40;99.90;;;;;;5068810;28;20024;-64
2023/02/03 11:46:42;;;;;;;19.25;8.48;;;9.50;99.90;;;;;;5071033;28;20109;-64
2023/02/03 11:49:36;;;;;;;18.88;7.70;;;9.50;99.90;;;;;;5062507;28;20425;-65
2023/02/03 11:52:27;;;;;;;23.90;8.20;;;9.60;99.90;;;;;;5066148;28;20032;-65
2023/02/03 11:55:19;;;;;;;17.98;7.75;;;9.60;99.90;;;;;;5067965;28;20029;-64
2023/02/03 11:58:25;;;;;;;19.80;8.32;;;9.60;99.90;;;;;;5062189;28;20037;-67
2023/02/03 12:01:16;;;;;;;17.95;9.35;;;9.60;99.90;;;;;;5061696;28;20084;-67
2023/02/03 12:04:12;;;;;;;21.30;7.93;;;9.50;99.90;;;;;;5059583;28;20363;-65
2023/02/03 12:09:33;;;;;;;19.77;9.35;;;9.50;99.90;;;;;;5092346;27;20820;-65
2023/02/03 12:12:25;;;;;;;24.60;9.90;;;9.40;99.90;;;;;;5089090;28;20347;-65
2023/02/03 12:15:23;;;;;;;23.17;10.38;;;9.30;99.90;;;;;;5084367;28;20025;-65
2023/02/03 12:18:15;;;;;;;25.70;9.63;;;9.20;99.90;;;;;;5082135;28;20124;-63
2023/02/03 12:21:20;;;;;;;21.08;10.82;;;9.20;99.90;;;;;;5083790;28;20028;-65
2023/02/03 12:24:13;;;;;;;21.33;11.43;;;9.10;99.90;;;;;;5080242;28;20497;-64
2023/02/03 12:27:06;;;;;;;24.85;11.38;;;9.10;99.90;;;;;;5079250;28;20444;-63
2023/02/03 12:29:38;;;;;;;29.27;10.80;;;9.10;99.90;;;;;;5098010;28;20071;-64
2023/02/03 12:34:57;;;;;;;21.08;9.20;;;9.10;99.90;;;;;;5102308;27;20428;-64
2023/02/03 12:37:29;;;;;;;17.08;6.47;;;9.00;99.90;;;;;;5108357;28;20107;-65
2023/02/03 12:39:59;;;;;;;21.80;7.05;;;9.00;99.90;;;;;;5101711;28;20543;-63
2023/02/03 12:42:33;;;;;;;24.05;7.28;;;9.00;99.90;;;;;;5106335;28;20028;-63
2023/02/03 12:45:04;;;;;;;19.95;6.40;;;9.00;99.90;;;;;;5106951;28;20362;-64
2023/02/03 12:47:44;;;;;;;21.42;6.40;;;8.90;99.90;;;;;;5099404;28;20445;-63
2023/02/03 12:50:39;;;;;;;20.10;5.97;;;8.90;99.90;;;;;;5095206;28;20111;-63
2023/02/03 12:53:19;;;;;;;22.48;5.88;;;8.90;99.90;;;;;;5100625;28;20036;-63
2023/02/03 12:56:06;;;;;;;22.98;6.38;;;9.00;99.90;;;;;;5103071;28;20021;-64
2023/02/03 12:58:37;;;;;;;19.42;6.40;;;9.00;99.90;;;;;;5096264;28;20066;-63
2023/02/03 13:01:14;;;;;;;21.95;6.68;;;9.00;99.90;;;;;;5096379;28;20538;-62
2023/02/03 13:04:04;;;;;;;23.75;6.22;;;9.00;99.90;;;;;;5105774;28;20030;-63
2023/02/03 13:06:43;;;;;;;21.73;6.88;;;9.00;99.90;;;;;;5098095;28;20033;-63
2023/02/03 13:09:30;;;;;;;18.60;6.15;;;9.10;99.90;;;;;;5099480;28;20043;-63
2023/02/03 13:12:11;;;;;;;21.80;5.65;;;9.00;99.90;;;;;;5092919;28;20024;-62